Time;durP1;ratioP1;P1;durP2;ratioP2;P2;SDS_P1;SDS_P2;PMS_P1;PMS_P2;Temp;Humidity;BMP_temperature;BMP_pressure;BME280_temperature;BME280_humidity;BME280_pressure;Samples;Min_cycle;Max_cycle;Signal;HPM_P1;HPM_P2
2023/03/24 00:01:50;;;;;;;3.67;3.30;;;21.20;46.50;;;;;;5030095;28;20510;-47
2023/03/24 00:04:16;;;;;;;3.73;2.97;;;21.10;47.10;;;;;;5028978;28;20480;-47
2023/03/24 00:06:42;;;;;;;3.47;3.07;;;21.10;47.90;;;;;;5027927;28;20520;-46
2023/03/24 00:09:08;;;;;;;3.63;3.30;;;21.10;48.10;;;;;;5030097;28;20192;-47
2023/03/24 00:11:34;;;;;;;3.20;2.90;;;21.10;47.90;;;;;;5035354;28;20448;-49
2023/03/24 00:14:01;;;;;;;3.20;2.70;;;21.00;47.10;;;;;;5033206;28;20781;-44
2023/03/24 00:16:27;;;;;;;2.60;2.40;;;20.70;47.30;;;;;;5027970;28;20577;-45
2023/03/24 00:18:53;;;;;;;2.90;2.63;;;20.50;47.90;;;;;;5026864;28;20935;-48
2023/03/24 00:21:22;;;;;;;3.60;2.50;;;20.20;48.30;;;;;;5032592;28;20515;-44
2023/03/24 00:23:48;;;;;;;4.37;3.07;;;20.10;48.80;;;;;;5032313;28;20480;-49
2023/03/24 00:26:15;;;;;;;3.20;2.90;;;20.00;49.40;;;;;;5029704;28;20578;-48
2023/03/24 00:28:43;;;;;;;3.43;3.13;;;19.90;49.80;;;;;;5029208;28;20450;-49
2023/03/24 00:31:09;;;;;;;3.77;3.10;;;19.70;50.40;;;;;;5031429;28;20432;-45
2023/03/24 00:33:36;;;;;;;3.30;2.67;;;19.70;50.40;;;;;;5044612;28;20530;-49
2023/03/24 00:36:04;;;;;;;2.60;2.40;;;19.70;50.10;;;;;;5028198;28;20443;-47
2023/03/24 00:38:30;;;;;;;2.50;2.30;;;19.90;49.70;;;;;;5029564;28;20451;-47
2023/03/24 00:40:58;;;;;;;3.50;2.63;;;19.80;49.00;;;;;;5032612;28;20945;-46
2023/03/24 00:43:24;;;;;;;2.60;2.40;;;19.70;48.40;;;;;;5032001;28;20451;-49
2023/03/24 00:45:56;;;;;;;2.33;2.13;;;19.90;48.40;;;;;;5031300;28;20950;-48
2023/03/24 00:48:23;;;;;;;3.50;3.20;;;19.90;49.00;;;;;;5031273;28;20984;-46
2023/03/24 00:50:50;;;;;;;4.67;3.33;;;20.10;49.10;;;;;;5036410;28;20424;-48
2023/03/24 00:53:17;;;;;;;2.80;2.60;;;20.10;49.00;;;;;;5034421;28;20451;-46
2023/03/24 00:55:45;;;;;;;2.50;2.30;;;20.10;49.00;;;;;;5035678;28;20471;-47
2023/03/24 00:58:16;;;;;;;2.87;2.63;;;20.10;48.60;;;;;;5035058;28;20521;-46
2023/03/24 01:00:43;;;;;;;2.90;2.43;;;20.20;48.30;;;;;;5035065;28;20451;-50
2023/03/24 01:03:09;;;;;;;3.70;2.53;;;20.20;47.70;;;;;;5031218;28;20467;-48
2023/03/24 01:05:35;;;;;;;2.77;2.23;;;20.20;47.50;;;;;;5032434;28;20931;-48
2023/03/24 01:08:02;;;;;;;3.97;2.40;;;20.30;47.30;;;;;;5036846;28;20296;-48
2023/03/24 01:10:29;;;;;;;2.40;2.20;;;20.10;47.30;;;;;;5035213;28;20488;-48
2023/03/24 01:12:57;;;;;;;2.23;2.10;;;20.10;47.30;;;;;;5041203;28;20467;-49
2023/03/24 01:15:26;;;;;;;3.17;2.77;;;20.20;47.10;;;;;;5033243;28;20454;-50
2023/03/24 01:17:53;;;;;;;2.00;1.87;;;20.10;47.00;;;;;;5029903;28;20452;-47
2023/03/24 01:20:19;;;;;;;2.23;2.03;;;20.10;47.00;;;;;;5034367;28;20443;-48
2023/03/24 01:22:45;;;;;;;2.20;2.00;;;20.20;47.20;;;;;;5024717;28;21498;-49
2023/03/24 01:25:17;;;;;;;7.93;2.33;;;20.10;46.70;;;;;;5020640;28;20439;-49
2023/03/24 01:27:44;;;;;;;2.70;2.33;;;20.00;46.70;;;;;;5026140;28;20715;-49
2023/03/24 01:30:13;;;;;;;2.30;2.10;;;20.00;47.10;;;;;;5015850;28;20539;-49
2023/03/24 01:32:39;;;;;;;3.10;2.30;;;20.00;47.10;;;;;;5022311;28;20435;-46
2023/03/24 01:35:05;;;;;;;3.07;2.33;;;20.10;47.00;;;;;;5029062;28;20447;-47
2023/03/24 01:37:31;;;;;;;3.30;2.27;;;20.00;47.20;;;;;;5024806;28;20534;-48
2023/03/24 01:39:56;;;;;;;3.33;2.40;;;19.70;47.50;;;;;;5025312;28;20189;-47
2023/03/24 01:42:24;;;;;;;2.93;2.50;;;19.70;48.00;;;;;;5027915;28;20205;-45
2023/03/24 01:44:53;;;;;;;2.60;2.27;;;19.60;48.00;;;;;;5023028;28;20207;-46
2023/03/24 01:47:19;;;;;;;3.50;2.40;;;19.20;48.70;;;;;;5021205;28;20495;-44
2023/03/24 01:49:58;;;;;;;2.60;2.40;;;19.00;49.60;;;;;;5022888;28;20789;-48
2023/03/24 01:52:28;;;;;;;2.83;2.53;;;19.00;50.20;;;;;;5026723;28;20227;-46
2023/03/24 01:55:01;;;;;;;3.97;2.63;;;19.10;50.40;;;;;;5025487;28;20452;-44
2023/03/24 01:57:32;;;;;;;2.63;2.40;;;19.20;50.30;;;;;;5027017;28;20479;-48
2023/03/24 02:00:03;;;;;;;2.80;2.60;;;19.40;50.30;;;;;;5025115;28;20441;-49
2023/03/24 02:02:33;;;;;;;3.43;2.60;;;19.50;49.80;;;;;;5023941;28;20483;-46
2023/03/24 02:05:03;;;;;;;3.57;2.33;;;19.50;49.70;;;;;;5025711;28;20870;-45
2023/03/24 02:07:39;;;;;;;3.63;2.23;;;19.60;49.40;;;;;;5026825;28;20479;-44
2023/03/24 02:10:12;;;;;;;2.40;2.20;;;19.60;49.10;;;;;;5026479;28;20458;-45
2023/03/24 02:12:40;;;;;;;2.07;1.97;;;19.70;49.00;;;;;;5024694;28;20963;-47
2023/03/24 02:15:07;;;;;;;3.27;2.97;;;19.40;49.00;;;;;;5018415;28;20977;-44
2023/03/24 02:17:53;;;;;;;3.07;1.97;;;19.10;49.30;;;;;;5029002;28;20451;-45
2023/03/24 02:20:52;;;;;;;2.47;2.27;;;19.20;49.50;;;;;;5027479;28;20454;-44
2023/03/24 02:23:54;;;;;;;2.50;2.30;;;19.10;50.00;;;;;;5025141;28;20459;-45
2023/03/24 02:26:45;;;;;;;2.90;2.20;;;19.40;50.00;;;;;;5019243;28;20852;-44
2023/03/24 02:29:16;;;;;;;2.53;2.33;;;19.50;49.80;;;;;;5024213;28;20455;-46
2023/03/24 02:31:57;;;;;;;3.43;2.30;;;19.60;48.90;;;;;;5027232;28;20502;-47
2023/03/24 02:34:49;;;;;;;2.23;2.03;;;19.70;48.30;;;;;;5016450;28;20538;-45
2023/03/24 02:37:36;;;;;;;4.23;2.23;;;19.80;47.90;;;;;;5028186;28;20464;-43
2023/03/24 02:40:28;;;;;;;3.10;2.50;;;19.80;47.60;;;;;;5018254;28;20596;-45
2023/03/24 02:43:20;;;;;;;3.00;2.00;;;19.70;47.50;;;;;;5024787;28;20462;-44
2023/03/24 02:46:16;;;;;;;2.23;2.03;;;19.60;47.60;;;;;;5019845;28;20506;-46
2023/03/24 02:49:22;;;;;;;1.93;1.70;;;19.60;47.70;;;;;;5014983;28;20444;-46
2023/03/24 02:52:01;;;;;;;2.40;2.20;;;19.70;47.30;;;;;;5004987;28;20467;-44
2023/03/24 02:54:45;;;;;;;3.20;1.87;;;19.70;47.20;;;;;;5021901;28;20444;-47
2023/03/24 02:57:35;;;;;;;2.60;2.00;;;19.60;47.10;;;;;;5029570;28;21001;-44
2023/03/24 03:00:17;;;;;;;2.63;2.30;;;19.40;47.00;;;;;;5025449;28;20449;-46
2023/03/24 03:02:51;;;;;;;2.90;1.90;;;19.50;47.40;;;;;;5024133;28;20443;-46
2023/03/24 03:05:28;;;;;;;2.63;2.43;;;19.50;46.90;;;;;;5030893;28;20444;-46
2023/03/24 03:07:57;;;;;;;2.93;2.00;;;19.40;47.10;;;;;;5030951;28;20818;-44
2023/03/24 03:10:28;;;;;;;2.37;2.17;;;19.40;47.00;;;;;;5030050;28;20530;-45
2023/03/24 03:12:57;;;;;;;4.20;2.07;;;19.40;47.10;;;;;;5027847;28;20432;-43
2023/03/24 03:15:34;;;;;;;2.77;2.30;;;19.40;47.20;;;;;;5030307;28;20444;-44
2023/03/24 03:18:35;;;;;;;2.47;2.27;;;19.50;46.60;;;;;;5026184;28;20444;-44
2023/03/24 03:21:10;;;;;;;2.20;2.03;;;19.50;46.80;;;;;;5004281;28;20461;-45
2023/03/24 03:23:45;;;;;;;2.50;2.10;;;19.30;46.70;;;;;;5027468;28;20447;-46
2023/03/24 03:26:15;;;;;;;2.30;2.10;;;19.40;46.70;;;;;;5028230;28;20486;-47
2023/03/24 03:28:48;;;;;;;3.33;2.50;;;19.60;46.50;;;;;;5029129;28;20486;-44
2023/03/24 03:31:20;;;;;;;1.50;1.40;;;19.70;46.20;;;;;;5029202;28;20521;-45
2023/03/24 03:33:53;;;;;;;2.27;2.07;;;19.80;46.10;;;;;;5028284;28;20490;-45
2023/03/24 03:36:26;;;;;;;2.30;2.10;;;19.80;46.20;;;;;;5025899;28;20526;-44
2023/03/24 03:39:05;;;;;;;1.83;1.70;;;19.80;46.30;;;;;;5025887;28;20440;-45
2023/03/24 03:41:31;;;;;;;1.80;1.70;;;19.60;46.50;;;;;;5028256;28;20458;-48
2023/03/24 03:43:57;;;;;;;2.10;2.00;;;19.60;46.60;;;;;;5026354;28;20437;-45
2023/03/24 03:46:22;;;;;;;2.10;2.00;;;19.70;46.40;;;;;;5028341;28;20233;-48
2023/03/24 03:48:48;;;;;;;3.03;2.10;;;19.90;46.30;;;;;;5023021;28;20251;-45
2023/03/24 03:51:14;;;;;;;2.10;1.90;;;19.80;46.00;;;;;;5017376;28;20722;-46
2023/03/24 03:53:44;;;;;;;2.50;2.03;;;20.00;46.00;;;;;;5029461;28;20185;-44
2023/03/24 03:56:10;;;;;;;1.93;1.83;;;20.00;46.00;;;;;;5028059;28;20472;-43
2023/03/24 03:58:36;;;;;;;2.80;2.57;;;20.00;45.90;;;;;;5022543;28;20519;-44
2023/03/24 04:01:05;;;;;;;2.23;2.07;;;20.00;45.70;;;;;;5023641;28;20448;-47
2023/03/24 04:03:51;;;;;;;2.40;2.20;;;20.00;45.80;;;;;;5026938;28;20863;-46
2023/03/24 04:06:43;;;;;;;4.77;2.20;;;20.00;45.80;;;;;;5023839;28;21314;-48
2023/03/24 04:09:30;;;;;;;2.60;1.70;;;20.00;45.70;;;;;;5029735;28;20782;-48
2023/03/24 04:12:17;;;;;;;2.50;1.80;;;19.70;46.00;;;;;;5018989;28;20490;-47
2023/03/24 04:15:25;;;;;;;2.17;1.97;;;19.60;46.30;;;;;;5028219;28;20453;-44
2023/03/24 04:18:09;;;;;;;3.03;1.87;;;19.50;46.60;;;;;;4975281;28;20474;-45
2023/03/24 04:20:48;;;;;;;1.97;1.83;;;19.50;46.40;;;;;;5028257;28;20498;-48
2023/03/24 04:23:32;;;;;;;1.70;1.60;;;19.70;46.40;;;;;;5018351;28;20527;-45
2023/03/24 04:26:34;;;;;;;3.73;2.60;;;19.60;46.60;;;;;;5024800;28;20633;-48
2023/03/24 04:29:24;;;;;;;2.10;1.60;;;19.60;46.50;;;;;;5027100;28;20845;-45
2023/03/24 04:32:01;;;;;;;1.77;1.67;;;19.80;46.30;;;;;;5019668;28;20857;-43
2023/03/24 04:34:45;;;;;;;2.23;2.03;;;19.90;46.30;;;;;;5025646;28;20478;-46
2023/03/24 04:37:15;;;;;;;2.13;1.90;;;19.90;46.20;;;;;;5022155;28;20530;-48
2023/03/24 04:39:44;;;;;;;4.90;2.30;;;19.70;46.30;;;;;;5028221;28;20447;-47
2023/03/24 04:42:21;;;;;;;2.77;2.10;;;19.80;46.10;;;;;;5022064;28;20494;-44
2023/03/24 04:44:50;;;;;;;2.30;2.10;;;19.90;46.00;;;;;;5027224;28;20460;-44
2023/03/24 04:47:21;;;;;;;4.47;2.20;;;20.10;45.70;;;;;;5028014;28;20491;-45
2023/03/24 04:49:47;;;;;;;2.40;2.00;;;20.20;45.60;;;;;;5027788;28;20478;-46
2023/03/24 04:52:13;;;;;;;7.73;2.40;;;20.10;45.30;;;;;;5030284;28;20432;-47
2023/03/24 04:54:38;;;;;;;2.60;2.13;;;20.00;45.40;;;;;;5022767;28;20248;-44
2023/03/24 04:57:04;;;;;;;2.40;2.20;;;20.00;45.30;;;;;;5028916;28;20233;-43
2023/03/24 04:59:33;;;;;;;2.03;1.93;;;19.80;45.40;;;;;;5033843;28;20534;-46
2023/03/24 05:01:59;;;;;;;2.77;2.37;;;19.80;46.10;;;;;;5030307;28;20874;-44
2023/03/24 05:04:27;;;;;;;1.90;1.80;;;19.90;45.70;;;;;;5030695;28;20515;-47
2023/03/24 05:06:53;;;;;;;1.60;1.50;;;19.70;45.60;;;;;;5033557;28;20485;-45
2023/03/24 05:09:20;;;;;;;3.00;1.73;;;19.70;46.00;;;;;;5032480;28;20442;-46
2023/03/24 05:11:47;;;;;;;1.47;1.37;;;19.40;46.40;;;;;;5029581;28;20440;-44
2023/03/24 05:14:13;;;;;;;2.00;1.90;;;19.10;47.10;;;;;;5020454;28;20427;-48
2023/03/24 05:16:40;;;;;;;4.03;1.87;;;18.80;48.00;;;;;;5027862;28;20498;-43
2023/03/24 05:19:06;;;;;;;1.70;1.60;;;18.60;48.70;;;;;;5025057;28;20442;-45
2023/03/24 05:21:32;;;;;;;1.80;1.57;;;18.50;49.10;;;;;;5022728;28;20495;-49
2023/03/24 05:23:58;;;;;;;2.20;1.70;;;18.40;49.40;;;;;;5020312;28;20478;-44
2023/03/24 05:26:25;;;;;;;1.60;1.50;;;18.60;49.60;;;;;;5028104;28;20846;-44
2023/03/24 05:28:51;;;;;;;3.03;2.00;;;18.70;49.90;;;;;;5028459;28;20284;-44
2023/03/24 05:31:16;;;;;;;2.30;1.70;;;18.50;49.70;;;;;;5018368;28;20522;-44
2023/03/24 05:33:42;;;;;;;2.90;1.80;;;18.70;50.10;;;;;;5025011;28;20483;-45
2023/03/24 05:36:08;;;;;;;2.50;1.57;;;19.00;49.70;;;;;;5023422;28;20204;-46
2023/03/24 05:38:34;;;;;;;1.50;1.40;;;19.10;49.30;;;;;;5025049;28;20307;-48
2023/03/24 05:41:00;;;;;;;2.90;1.37;;;19.10;49.60;;;;;;5020246;28;20542;-44
2023/03/24 05:43:26;;;;;;;6.77;2.50;;;19.10;50.10;;;;;;5028891;28;20622;-46
2023/03/24 05:45:52;;;;;;;2.10;1.97;;;18.90;51.20;;;;;;5024140;28;20479;-48
2023/03/24 05:48:17;;;;;;;1.80;1.70;;;18.60;53.30;;;;;;5028592;28;20436;-45
2023/03/24 05:50:43;;;;;;;2.30;2.03;;;18.40;54.40;;;;;;5028430;28;20288;-44
2023/03/24 05:53:08;;;;;;;2.13;1.97;;;18.60;54.90;;;;;;5028459;28;20287;-43
2023/03/24 05:55:34;;;;;;;2.60;2.27;;;18.80;55.20;;;;;;5026809;28;20236;-43
2023/03/24 05:58:03;;;;;;;3.37;2.50;;;18.80;55.10;;;;;;5024579;28;20189;-49
2023/03/24 06:00:30;;;;;;;2.40;2.10;;;18.70;55.20;;;;;;5020050;28;21591;-44
2023/03/24 06:02:57;;;;;;;3.80;2.60;;;18.70;55.50;;;;;;5029075;28;20460;-46
2023/03/24 06:05:23;;;;;;;3.00;2.70;;;18.90;55.60;;;;;;5030798;28;20845;-45
2023/03/24 06:07:49;;;;;;;2.50;2.23;;;19.20;55.10;;;;;;5029203;28;20523;-44
2023/03/24 06:10:17;;;;;;;2.10;1.97;;;19.30;54.80;;;;;;5040900;28;20452;-44
2023/03/24 06:12:43;;;;;;;2.53;2.33;;;19.40;54.60;;;;;;5025163;28;20197;-43
2023/03/24 06:15:09;;;;;;;2.53;1.97;;;19.60;54.30;;;;;;5029309;28;20519;-48
2023/03/24 06:17:41;;;;;;;3.07;2.23;;;19.70;54.10;;;;;;5029836;28;21198;-46
2023/03/24 06:20:13;;;;;;;2.20;2.00;;;19.80;53.90;;;;;;5028725;28;20440;-47
2023/03/24 06:22:39;;;;;;;2.70;2.50;;;19.90;54.00;;;;;;5028616;28;20518;-46
2023/03/24 06:25:05;;;;;;;2.37;2.17;;;19.90;54.00;;;;;;5019897;28;20444;-45
2023/03/24 06:27:31;;;;;;;3.17;2.73;;;20.00;54.10;;;;;;5026509;28;20304;-44
2023/03/24 06:29:57;;;;;;;3.30;2.57;;;20.00;53.90;;;;;;5024147;28;20437;-44
2023/03/24 06:32:22;;;;;;;3.10;2.30;;;20.10;53.90;;;;;;5025026;28;20288;-44
2023/03/24 06:34:48;;;;;;;3.13;2.83;;;20.10;53.80;;;;;;5025140;28;20232;-48
2023/03/24 06:37:14;;;;;;;2.70;2.27;;;20.20;53.70;;;;;;5020872;28;20197;-49
2023/03/24 06:39:40;;;;;;;2.70;2.50;;;20.20;53.50;;;;;;5022002;28;20271;-46
2023/03/24 06:42:06;;;;;;;6.43;3.60;;;20.30;53.20;;;;;;5026495;28;20526;-45
2023/03/24 06:44:32;;;;;;;2.70;2.50;;;20.40;53.10;;;;;;5023688;28;20280;-48
2023/03/24 06:46:58;;;;;;;2.90;2.70;;;20.50;53.10;;;;;;5020872;28;20492;-46
2023/03/24 06:49:24;;;;;;;3.60;2.90;;;20.50;53.00;;;;;;5028327;28;20193;-44
2023/03/24 06:51:50;;;;;;;4.87;2.80;;;20.40;52.80;;;;;;5031095;28;20197;-45
2023/03/24 06:54:16;;;;;;;5.23;3.30;;;20.40;53.10;;;;;;5027282;28;20287;-45
2023/03/24 06:56:42;;;;;;;7.80;4.70;;;20.30;53.50;;;;;;5024804;28;20563;-44
2023/03/24 06:59:08;;;;;;;4.27;3.87;;;20.20;53.90;;;;;;5049984;28;20193;-44
2023/03/24 07:01:34;;;;;;;4.70;4.20;;;20.10;54.10;;;;;;5046068;28;20443;-44
2023/03/24 07:04:01;;;;;;;3.77;3.47;;;20.00;54.20;;;;;;5049053;28;20192;-44
2023/03/24 07:06:28;;;;;;;6.40;3.00;;;19.90;54.80;;;;;;5049438;28;20521;-46
2023/03/24 07:08:54;;;;;;;3.40;3.13;;;19.70;54.60;;;;;;5048506;28;20538;-46
2023/03/24 07:11:20;;;;;;;2.40;2.20;;;19.80;54.60;;;;;;5048528;28;20509;-49
2023/03/24 07:13:45;;;;;;;2.20;2.00;;;19.20;55.00;;;;;;5049473;28;20447;-49
2023/03/24 07:16:11;;;;;;;3.90;2.83;;;18.80;56.10;;;;;;5045290;28;20219;-47
2023/03/24 07:18:36;;;;;;;5.17;3.50;;;18.80;56.80;;;;;;5050422;28;20224;-47
2023/03/24 07:21:02;;;;;;;3.20;2.80;;;18.40;56.80;;;;;;5048505;28;20242;-45
2023/03/24 07:23:29;;;;;;;3.80;2.60;;;18.00;58.50;;;;;;5049567;28;20412;-45
2023/03/24 07:25:54;;;;;;;3.00;2.70;;;18.00;58.80;;;;;;5048484;28;20435;-48
2023/03/24 07:28:20;;;;;;;2.83;2.63;;;17.80;59.60;;;;;;5048739;28;20557;-47
2023/03/24 07:30:46;;;;;;;4.30;3.10;;;17.80;60.30;;;;;;5046965;28;20203;-44
2023/03/24 07:33:12;;;;;;;2.97;2.57;;;17.80;61.40;;;;;;5054464;28;20930;-45
2023/03/24 07:35:41;;;;;;;2.60;2.40;;;18.00;61.30;;;;;;5048434;28;20672;-49
2023/03/24 07:38:07;;;;;;;3.20;2.80;;;18.10;61.60;;;;;;5049195;28;20756;-47
2023/03/24 07:40:36;;;;;;;3.37;3.07;;;18.10;61.80;;;;;;5048384;28;20477;-44
2023/03/24 07:43:04;;;;;;;2.90;2.70;;;18.10;62.00;;;;;;5046881;28;20474;-43
2023/03/24 07:45:30;;;;;;;3.03;2.47;;;18.00;63.20;;;;;;5048628;28;20478;-45
2023/03/24 07:48:00;;;;;;;3.03;2.60;;;17.90;63.80;;;;;;5048746;28;20854;-46
2023/03/24 07:50:27;;;;;;;3.40;2.80;;;17.90;64.40;;;;;;5046965;28;20438;-46
2023/03/24 07:52:52;;;;;;;3.37;2.37;;;18.10;64.30;;;;;;5042881;28;20449;-46
2023/03/24 07:55:18;;;;;;;4.60;2.70;;;18.20;64.20;;;;;;5041942;28;20844;-45
2023/03/24 07:57:48;;;;;;;3.97;2.70;;;18.10;64.80;;;;;;5023435;28;20198;-47
2023/03/24 08:00:18;;;;;;;4.53;2.47;;;17.80;65.00;;;;;;5016767;28;20204;-48
2023/03/24 08:02:46;;;;;;;2.50;2.30;;;17.80;66.20;;;;;;5018683;28;20871;-43
2023/03/24 08:05:13;;;;;;;4.57;2.50;;;17.60;67.00;;;;;;5021601;28;20452;-44
2023/03/24 08:07:41;;;;;;;3.10;2.50;;;17.40;68.00;;;;;;5023035;28;20484;-48
2023/03/24 08:10:11;;;;;;;3.20;2.80;;;17.40;68.80;;;;;;5019605;28;20447;-46
2023/03/24 08:12:37;;;;;;;3.53;2.30;;;17.20;69.10;;;;;;5032167;28;20527;-53
2023/03/24 08:15:04;;;;;;;3.80;2.87;;;17.40;69.40;;;;;;5018563;28;21011;-55
2023/03/24 08:17:29;;;;;;;4.60;3.00;;;17.40;69.50;;;;;;5027665;28;20208;-58
2023/03/24 08:19:55;;;;;;;3.50;2.50;;;17.60;69.10;;;;;;5025818;28;21552;-55
2023/03/24 08:22:21;;;;;;;3.93;2.93;;;17.50;69.50;;;;;;5024662;28;20680;-54
2023/03/24 08:24:46;;;;;;;3.10;2.80;;;17.50;70.00;;;;;;5025978;28;20224;-54
2023/03/24 08:27:12;;;;;;;3.37;3.07;;;17.50;70.10;;;;;;5025337;28;20302;-56
2023/03/24 08:29:37;;;;;;;3.20;2.80;;;17.40;70.40;;;;;;5031772;28;20207;-56
2023/03/24 08:32:03;;;;;;;3.00;2.80;;;17.30;71.10;;;;;;5028257;28;20359;-53
2023/03/24 08:34:29;;;;;;;2.87;2.53;;;17.50;70.80;;;;;;5028702;28;20621;-53
2023/03/24 08:36:55;;;;;;;2.80;2.60;;;17.70;69.70;;;;;;5028492;28;20479;-56
2023/03/24 08:39:20;;;;;;;2.97;2.77;;;17.90;69.70;;;;;;5030797;28;20200;-55
2023/03/24 08:41:48;;;;;;;3.30;3.10;;;17.90;69.80;;;;;;5027522;28;20189;-54
2023/03/24 08:44:15;;;;;;;4.67;3.40;;;17.80;69.20;;;;;;5026234;28;20186;-54
2023/03/24 08:46:41;;;;;;;4.87;3.10;;;17.60;70.60;;;;;;5026871;28;20990;-52
2023/03/24 08:49:06;;;;;;;3.73;3.23;;;17.60;71.00;;;;;;5029845;28;20486;-54
2023/03/24 08:51:33;;;;;;;2.90;2.70;;;17.40;72.00;;;;;;5031840;28;20201;-55
2023/03/24 08:54:02;;;;;;;3.70;2.90;;;17.50;71.90;;;;;;5029755;28;20193;-55
2023/03/24 08:56:28;;;;;;;2.97;2.77;;;17.60;71.50;;;;;;5027622;28;20563;-54
2023/03/24 08:58:54;;;;;;;3.70;3.30;;;17.70;70.30;;;;;;5032080;28;20476;-56
2023/03/24 09:01:21;;;;;;;3.20;3.00;;;17.60;69.90;;;;;;5031348;28;20479;-55
2023/03/24 09:03:47;;;;;;;2.57;2.30;;;17.70;70.40;;;;;;5031569;28;20200;-54
2023/03/24 09:06:13;;;;;;;4.17;3.17;;;17.80;70.00;;;;;;5028040;28;20473;-54
2023/03/24 09:08:39;;;;;;;4.33;2.40;;;17.80;70.00;;;;;;5028921;28;20943;-54
2023/03/24 09:11:06;;;;;;;2.13;2.03;;;17.60;70.30;;;;;;5032108;28;20440;-54
2023/03/24 09:13:31;;;;;;;3.87;2.40;;;17.50;70.60;;;;;;5028250;28;21206;-55
2023/03/24 09:15:59;;;;;;;2.60;2.40;;;17.30;70.80;;;;;;5030594;28;20527;-55
2023/03/24 09:18:25;;;;;;;3.40;3.20;;;17.30;70.50;;;;;;5042542;28;20276;-53
2023/03/24 09:20:51;;;;;;;4.53;2.47;;;17.30;71.40;;;;;;5033148;28;20427;-53
2023/03/24 09:23:18;;;;;;;6.07;2.50;;;17.50;71.00;;;;;;5031135;28;20848;-55
2023/03/24 09:25:44;;;;;;;3.90;3.23;;;17.70;70.70;;;;;;5030407;28;20247;-51
2023/03/24 09:28:10;;;;;;;4.50;3.40;;;17.80;70.70;;;;;;5030488;28;20439;-55
2023/03/24 09:30:36;;;;;;;3.80;3.20;;;17.90;69.80;;;;;;5029629;28;20451;-54
2023/03/24 09:33:02;;;;;;;3.73;3.43;;;17.90;69.10;;;;;;5031663;28;20490;-53
2023/03/24 09:35:27;;;;;;;3.83;3.10;;;17.90;69.50;;;;;;5028236;28;20201;-54
2023/03/24 09:37:54;;;;;;;2.87;2.67;;;17.90;69.60;;;;;;5024839;28;20451;-55
2023/03/24 09:40:24;;;;;;;2.80;2.60;;;17.80;70.10;;;;;;5030073;28;20330;-55
2023/03/24 09:43:00;;;;;;;2.80;2.60;;;17.90;69.50;;;;;;5024300;28;20483;-55
2023/03/24 09:45:27;;;;;;;2.73;2.43;;;17.80;69.50;;;;;;5025817;28;21291;-54
2023/03/24 09:47:57;;;;;;;3.20;2.80;;;17.80;69.90;;;;;;5038057;28;20495;-55
2023/03/24 09:50:25;;;;;;;5.00;2.90;;;18.00;69.30;;;;;;5031065;28;20525;-54
2023/03/24 09:53:00;;;;;;;3.00;2.37;;;18.10;68.80;;;;;;5029898;28;20844;-55
2023/03/24 09:55:27;;;;;;;2.80;2.60;;;17.90;68.80;;;;;;5028570;28;20485;-54
2023/03/24 09:57:58;;;;;;;3.27;2.40;;;17.70;68.20;;;;;;5025891;28;20451;-54
2023/03/24 10:00:32;;;;;;;2.70;2.17;;;17.70;68.20;;;;;;5027843;28;20444;-54
2023/03/24 10:03:22;;;;;;;3.80;2.53;;;17.80;68.00;;;;;;5026215;28;20436;-54
2023/03/24 10:06:00;;;;;;;2.67;2.40;;;17.90;68.20;;;;;;5025077;28;20443;-55
2023/03/24 10:08:34;;;;;;;2.80;2.60;;;17.90;68.20;;;;;;5024335;28;20487;-55
2023/03/24 10:11:10;;;;;;;2.50;2.30;;;18.00;67.20;;;;;;5025854;28;20448;-55
2023/03/24 10:14:29;;;;;;;2.80;2.47;;;18.10;66.80;;;;;;5031486;28;20451;-54
2023/03/24 10:17:09;;;;;;;4.43;2.17;;;18.20;66.20;;;;;;4950595;28;20463;-55
2023/03/24 10:20:06;;;;;;;3.73;2.20;;;18.40;65.20;;;;;;5020656;28;20448;-53
2023/03/24 10:22:46;;;;;;;2.30;2.10;;;18.10;64.70;;;;;;5022516;28;20452;-55
2023/03/24 10:25:18;;;;;;;3.50;2.03;;;18.20;64.60;;;;;;5023934;28;20796;-55
2023/03/24 10:27:59;;;;;;;2.40;2.20;;;18.40;64.00;;;;;;5026845;28;20487;-55
2023/03/24 10:30:32;;;;;;;2.43;2.17;;;18.50;63.40;;;;;;5023422;28;20463;-51
2023/03/24 10:32:57;;;;;;;2.53;2.20;;;18.40;63.80;;;;;;5022207;28;20444;-53
2023/03/24 10:35:34;;;;;;;3.30;2.40;;;18.40;62.10;;;;;;5028486;28;20443;-54
2023/03/24 10:38:03;;;;;;;2.00;1.90;;;18.10;63.20;;;;;;5024301;28;20279;-54
2023/03/24 10:40:32;;;;;;;3.90;1.90;;;18.20;63.50;;;;;;5029512;28;20443;-53
2023/03/24 10:43:00;;;;;;;2.23;1.97;;;18.30;62.50;;;;;;5029801;28;20440;-53
2023/03/24 10:45:30;;;;;;;2.10;1.70;;;18.00;62.30;;;;;;5031359;28;20420;-51
2023/03/24 10:47:59;;;;;;;1.90;1.80;;;18.20;63.40;;;;;;5029359;28;20484;-52
2023/03/24 10:50:28;;;;;;;2.37;2.07;;;18.50;62.30;;;;;;5028046;28;20463;-50
2023/03/24 10:52:54;;;;;;;1.83;1.53;;;18.40;60.80;;;;;;5030285;28;20896;-50
2023/03/24 10:55:23;;;;;;;1.83;1.70;;;18.40;60.20;;;;;;5029795;28;20472;-53
2023/03/24 10:57:52;;;;;;;2.03;1.67;;;18.40;60.70;;;;;;5028682;28;21135;-51
2023/03/24 11:00:22;;;;;;;1.60;1.50;;;18.40;59.90;;;;;;5019719;28;20453;-52
2023/03/24 11:03:13;;;;;;;2.30;1.37;;;18.40;59.10;;;;;;5041742;28;20423;-50
2023/03/24 11:05:42;;;;;;;2.10;1.50;;;18.10;59.30;;;;;;5038464;28;20454;-54
2023/03/24 11:08:26;;;;;;;1.47;1.37;;;18.10;59.40;;;;;;5042297;28;20860;-50
2023/03/24 11:10:51;;;;;;;2.57;1.77;;;18.20;58.70;;;;;;5024812;28;20440;-53
2023/03/24 11:13:35;;;;;;;1.40;1.30;;;18.20;58.20;;;;;;5039141;28;20412;-54
2023/03/24 11:16:13;;;;;;;2.57;1.13;;;18.00;57.20;;;;;;5028980;28;20204;-55
2023/03/24 11:18:57;;;;;;;2.10;1.30;;;18.20;57.90;;;;;;5023853;28;20483;-53
2023/03/24 11:21:23;;;;;;;1.40;1.30;;;18.30;57.30;;;;;;5030291;28;20428;-53
2023/03/24 11:23:49;;;;;;;2.60;1.47;;;18.30;57.00;;;;;;5030767;28;20784;-50
2023/03/24 11:26:29;;;;;;;2.83;1.60;;;18.50;57.20;;;;;;5027776;28;20251;-52
2023/03/24 11:28:58;;;;;;;1.37;1.27;;;18.80;56.70;;;;;;5025836;28;20554;-55
2023/03/24 11:31:30;;;;;;;1.10;1.00;;;18.60;56.10;;;;;;5028284;28;20943;-53
2023/03/24 11:34:09;;;;;;;1.27;1.23;;;18.40;56.30;;;;;;5028763;28;20503;-49
2023/03/24 11:36:41;;;;;;;1.43;1.20;;;18.30;55.80;;;;;;5027617;28;20455;-52
2023/03/24 11:39:19;;;;;;;2.90;1.50;;;18.10;55.80;;;;;;5027551;28;20451;-51
2023/03/24 11:42:04;;;;;;;1.50;1.40;;;18.30;56.30;;;;;;5025261;28;20460;-52
2023/03/24 11:44:37;;;;;;;1.67;1.33;;;18.30;56.00;;;;;;5029257;28;20554;-55
2023/03/24 11:47:23;;;;;;;3.10;1.07;;;18.30;55.40;;;;;;5029725;28;20487;-53
2023/03/24 11:50:10;;;;;;;1.13;1.13;;;18.50;55.90;;;;;;5012286;28;20455;-51
2023/03/24 11:52:38;;;;;;;1.40;1.30;;;18.50;55.40;;;;;;5038257;28;21304;-50
2023/03/24 11:55:14;;;;;;;2.37;1.20;;;18.70;55.50;;;;;;5030300;28;20534;-54
2023/03/24 11:57:45;;;;;;;1.17;1.07;;;18.70;55.10;;;;;;5030128;28;20562;-53
2023/03/24 12:00:31;;;;;;;1.70;1.60;;;18.80;54.90;;;;;;5027885;28;20538;-55
2023/03/24 12:03:25;;;;;;;1.40;1.30;;;18.70;54.80;;;;;;5029528;28;20462;-53
2023/03/24 12:06:14;;;;;;;2.60;0.93;;;18.70;54.70;;;;;;5028827;28;20531;-55
2023/03/24 12:09:00;;;;;;;1.83;1.13;;;18.50;54.60;;;;;;5027099;28;20456;-55
2023/03/24 12:11:50;;;;;;;1.20;1.10;;;18.50;54.70;;;;;;4987877;28;20444;-54
2023/03/24 12:14:28;;;;;;;4.83;1.07;;;18.40;54.80;;;;;;5012215;28;21524;-54
2023/03/24 12:17:15;;;;;;;0.60;0.60;;;18.20;53.90;;;;;;5027405;28;20450;-55
2023/03/24 12:19:49;;;;;;;0.90;0.70;;;18.10;53.90;;;;;;5029062;28;20826;-54
2023/03/24 12:22:27;;;;;;;0.73;0.73;;;18.30;54.00;;;;;;5027766;28;20454;-55
2023/03/24 12:25:23;;;;;;;1.20;1.10;;;18.40;53.30;;;;;;5035352;28;20729;-51
2023/03/24 12:27:52;;;;;;;0.70;0.70;;;18.30;52.80;;;;;;4989271;28;20487;-53
2023/03/24 12:30:29;;;;;;;1.00;0.87;;;18.10;52.50;;;;;;5043361;28;20968;-54
2023/03/24 12:33:01;;;;;;;0.87;0.60;;;18.20;52.80;;;;;;5013630;28;20451;-54
2023/03/24 12:35:36;;;;;;;0.70;0.70;;;18.00;52.20;;;;;;5038336;28;20460;-54
2023/03/24 12:38:36;;;;;;;0.70;0.70;;;17.90;52.10;;;;;;5025567;28;20455;-56
2023/03/24 12:41:25;;;;;;;1.10;0.90;;;18.20;52.70;;;;;;5019010;28;20472;-53
2023/03/24 12:44:10;;;;;;;2.53;0.80;;;18.30;51.60;;;;;;5019997;28;20443;-55
2023/03/24 12:46:57;;;;;;;0.70;0.70;;;18.40;51.90;;;;;;5028128;28;20484;-53
2023/03/24 12:49:59;;;;;;;1.07;0.80;;;18.20;51.80;;;;;;5023345;28;20509;-55
2023/03/24 12:52:39;;;;;;;0.70;0.70;;;18.10;51.90;;;;;;5016209;28;20799;-55
2023/03/24 12:55:33;;;;;;;0.70;0.70;;;17.90;52.10;;;;;;5020650;28;20494;-53
2023/03/24 12:58:06;;;;;;;0.83;0.73;;;17.90;53.20;;;;;;5024615;28;20463;-56
2023/03/24 13:00:44;;;;;;;0.93;0.80;;;18.20;52.40;;;;;;5022234;28;20551;-56
2023/03/24 13:03:17;;;;;;;1.90;0.63;;;18.30;52.30;;;;;;5024184;28;20447;-55
2023/03/24 13:05:49;;;;;;;0.87;0.87;;;18.20;52.60;;;;;;5020607;28;20485;-54
2023/03/24 13:08:28;;;;;;;0.80;0.80;;;18.20;52.40;;;;;;5028966;28;20448;-56
2023/03/24 13:11:01;;;;;;;0.70;0.70;;;18.20;52.40;;;;;;5023830;28;20834;-56
2023/03/24 13:13:41;;;;;;;0.70;0.70;;;18.20;52.70;;;;;;5025370;28;20976;-57